Time;durP1;ratioP1;P1;durP2;ratioP2;P2;SDS_P1;SDS_P2;PMS_P1;PMS_P2;Temp;Humidity;BMP_temperature;BMP_pressure;BME280_temperature;BME280_humidity;BME280_pressure;Samples;Min_cycle;Max_cycle;Signal;HPM_P1;HPM_P2
2023/07/02 00:01:33;;;;;;;;;;;;;;;;;;5034209;28;19925;-67
2023/07/02 00:03:59;;;;;;;;;;;;;;;;;;5033939;28;20363;-70
2023/07/02 00:06:26;;;;;;;;;;;;;;;;;;5033468;28;20016;-70
2023/07/02 00:08:52;;;;;;;;;;;;;;;;;;5034158;28;19933;-69
2023/07/02 00:11:18;;;;;;;;;;;;;;;;;;5033520;28;20008;-69
2023/07/02 00:13:46;;;;;;;;;;;;;;;;;;5033764;28;19925;-69
2023/07/02 00:16:13;;;;;;;;;;;;;;;;;;5033572;28;19952;-69
2023/07/02 00:18:39;;;;;;;;;;;;;;;;;;5033872;28;20016;-70
2023/07/02 00:21:06;;;;;;;;;;;;;;;;;;5033193;28;19925;-70
2023/07/02 00:23:33;;;;;;;;;;;;;;;;;;5033474;28;19925;-70
2023/07/02 00:25:59;;;;;;;;;;;;;;;;;;5032979;28;19925;-70
2023/07/02 00:28:25;;;;;;;;;;;;;;;;;;5033783;28;19931;-70
2023/07/02 00:30:53;;;;;;;;;;;;;;;;;;5033419;28;19925;-70
2023/07/02 00:33:19;;;;;;;;;;;;;;;;;;5033649;28;20294;-69
2023/07/02 00:35:46;;;;;;;;;;;;;;;;;;5033644;28;20021;-69
2023/07/02 00:38:12;;;;;;;;;;;;;;;;;;5033076;28;20035;-70
2023/07/02 00:40:39;;;;;;;;;;;;;;;;;;5033050;28;20021;-70
2023/07/02 00:43:05;;;;;;;;;;;;;;;;;;5032629;28;20513;-70
2023/07/02 00:45:31;;;;;;;;;;;;;;;;;;5033337;28;19925;-69
2023/07/02 00:47:59;;;;;;;;;;;;;;;;;;5032581;28;19925;-70
2023/07/02 00:50:26;;;;;;;;;;;;;;;;;;5033073;28;20014;-70
2023/07/02 00:52:53;;;;;;;;;;;;;;;;;;5032498;28;20008;-70
2023/07/02 00:55:20;;;;;;;;;;;;;;;;;;5033014;28;19925;-70
2023/07/02 00:57:47;;;;;;;;;;;;;;;;;;5032334;28;20349;-70
2023/07/02 01:00:14;;;;;;;;;;;;;;;;;;5032817;28;20016;-69
2023/07/02 01:02:43;;;;;;;;;;;;;;;;;;5032745;28;19925;-70
2023/07/02 01:05:14;;;;;;;;;;;;;;;;;;5032745;28;19947;-70
2023/07/02 01:07:40;;;;;;;;;;;;;;;;;;5032192;28;19931;-69
2023/07/02 01:10:07;;;;;;;;;;;;;;;;;;5032745;28;20004;-70
2023/07/02 01:12:34;;;;;;;;;;;;;;;;;;5032607;28;20289;-70
2023/07/02 01:15:02;;;;;;;;;;;;;;;;;;5031706;28;19925;-70
2023/07/02 01:17:37;;;;;;;;;;;;;;;;;;5032513;28;19956;-70
2023/07/02 01:20:08;;;;;;;;;;;;;;;;;;5031541;28;19925;-70
2023/07/02 01:22:35;;;;;;;;;;;;;;;;;;5032616;28;19929;-70
2023/07/02 01:25:02;;;;;;;;;;;;;;;;;;5032082;28;20375;-69
2023/07/02 01:27:28;;;;;;;;;;;;;;;;;;5032572;28;20047;-70
2023/07/02 01:29:55;;;;;;;;;;;;;;;;;;5032023;28;19929;-70
2023/07/02 01:32:22;;;;;;;;;;;;;;;;;;5032590;28;20016;-70
2023/07/02 01:34:49;;;;;;;;;;;;;;;;;;5031660;28;19951;-70
2023/07/02 01:37:18;;;;;;;;;;;;;;;;;;5032032;28;19925;-70
2023/07/02 01:39:44;;;;;;;;;;;;;;;;;;5031676;28;20016;-70
2023/07/02 01:42:11;;;;;;;;;;;;;;;;;;5032372;28;19936;-69
2023/07/02 01:44:38;;;;;;;;;;;;;;;;;;5032045;28;19932;-69
2023/07/02 01:47:04;;;;;;;;;;;;;;;;;;5032164;28;19929;-70
2023/07/02 01:49:32;;;;;;;;;;;;;;;;;;5031803;28;20297;-70
2023/07/02 01:51:58;;;;;;;;;;;;;;;;;;5031315;28;19925;-70
2023/07/02 01:54:27;;;;;;;;;;;;;;;;;;5031886;28;20394;-69
2023/07/02 01:56:54;;;;;;;;;;;;;;;;;;5031333;28;20395;-70
2023/07/02 01:59:20;;;;;;;;;;;;;;;;;;5031818;28;19936;-69
2023/07/02 02:01:47;;;;;;;;;;;;;;;;;;5031301;28;20375;-70
2023/07/02 02:04:13;;;;;;;;;;;;;;;;;;5031781;28;20024;-70
2023/07/02 02:06:40;;;;;;;;;;;;;;;;;;5031127;28;19951;-70
2023/07/02 02:09:07;;;;;;;;;;;;;;;;;;5031551;28;19948;-70
2023/07/02 02:11:35;;;;;;;;;;;;;;;;;;5031096;28;19926;-70
2023/07/02 02:14:02;;;;;;;;;;;;;;;;;;5031446;28;19925;-69
2023/07/02 02:16:28;;;;;;;;;;;;;;;;;;5031142;28;19968;-70
2023/07/02 02:18:55;;;;;;;;;;;;;;;;;;5031258;28;20031;-70
2023/07/02 02:21:21;;;;;;;;;;;;;;;;;;5031391;28;20408;-69
2023/07/02 02:23:48;;;;;;;;;;;;;;;;;;5031327;28;20278;-69
2023/07/02 02:26:14;;;;;;;;;;;;;;;;;;5031016;28;19936;-69
2023/07/02 02:28:42;;;;;;;;;;;;;;;;;;5031044;28;19925;-70
2023/07/02 02:31:09;;;;;;;;;;;;;;;;;;5031428;28;19975;-70
2023/07/02 02:33:36;;;;;;;;;;;;;;;;;;5030894;28;20370;-70
2023/07/02 02:36:02;;;;;;;;;;;;;;;;;;5031415;28;20064;-70
2023/07/02 02:38:29;;;;;;;;;;;;;;;;;;5030460;28;20015;-69
2023/07/02 02:40:55;;;;;;;;;;;;;;;;;;5031552;28;20019;-70
2023/07/02 02:43:22;;;;;;;;;;;;;;;;;;5030643;28;20020;-70
2023/07/02 02:45:50;;;;;;;;;;;;;;;;;;5031428;28;20341;-70
2023/07/02 02:48:16;;;;;;;;;;;;;;;;;;5030768;28;19925;-68
2023/07/02 02:50:43;;;;;;;;;;;;;;;;;;5031554;28;20263;-68
2023/07/02 02:53:09;;;;;;;;;;;;;;;;;;5030929;28;19932;-68
2023/07/02 02:55:36;;;;;;;;;;;;;;;;;;5031533;28;19932;-67
2023/07/02 02:58:02;;;;;;;;;;;;;;;;;;5030825;28;19940;-68
2023/07/02 03:00:29;;;;;;;;;;;;;;;;;;5030740;28;19925;-68
2023/07/02 03:02:57;;;;;;;;;;;;;;;;;;5034722;28;20408;-68
2023/07/02 03:05:23;;;;;;;;;;;;;;;;;;5034650;28;20409;-68
2023/07/02 03:07:52;;;;;;;;;;;;;;;;;;5034730;28;19925;-67
2023/07/02 03:10:18;;;;;;;;;;;;;;;;;;5034725;28;19932;-68
2023/07/02 03:12:45;;;;;;;;;;;;;;;;;;5035206;28;19929;-67
2023/07/02 03:15:11;;;;;;;;;;;;;;;;;;5034491;28;19936;-68
2023/07/02 03:17:38;;;;;;;;;;;;;;;;;;5034906;28;20430;-68
2023/07/02 03:20:07;;;;;;;;;;;;;;;;;;5034108;28;19980;-67
2023/07/02 03:22:34;;;;;;;;;;;;;;;;;;5034842;28;20032;-68
2023/07/02 03:25:00;;;;;;;;;;;;;;;;;;5034262;28;20538;-67
2023/07/02 03:27:27;;;;;;;;;;;;;;;;;;5034469;28;19947;-68
2023/07/02 03:29:53;;;;;;;;;;;;;;;;;;5033929;28;20016;-68
2023/07/02 03:32:20;;;;;;;;;;;;;;;;;;5034800;28;19932;-68
2023/07/02 03:34:46;;;;;;;;;;;;;;;;;;5034499;28;20011;-67
2023/07/02 03:37:14;;;;;;;;;;;;;;;;;;5034008;28;19925;-68
2023/07/02 03:39:40;;;;;;;;;;;;;;;;;;5033199;28;19925;-69
2023/07/02 03:42:06;;;;;;;;;;;;;;;;;;5033606;28;20012;-69
2023/07/02 03:44:33;;;;;;;;;;;;;;;;;;5033803;28;20375;-69
2023/07/02 03:46:59;;;;;;;;;;;;;;;;;;5033412;28;19965;-69
2023/07/02 03:49:26;;;;;;;;;;;;;;;;;;5033342;28;20450;-69
2023/07/02 03:51:52;;;;;;;;;;;;;;;;;;5033320;28;20064;-69
2023/07/02 03:54:20;;;;;;;;;;;;;;;;;;5033973;28;19925;-69
2023/07/02 03:56:46;;;;;;;;;;;;;;;;;;5033241;28;19931;-69
2023/07/02 03:59:13;;;;;;;;;;;;;;;;;;5033710;28;20305;-69
2023/07/02 04:01:39;;;;;;;;;;;;;;;;;;5032434;28;19929;-68
2023/07/02 04:04:05;;;;;;;;;;;;;;;;;;5033318;28;19931;-69
2023/07/02 04:06:33;;;;;;;;;;;;;;;;;;5033088;28;20020;-69
2023/07/02 04:09:00;;;;;;;;;;;;;;;;;;5032869;28;19964;-69
2023/07/02 04:11:28;;;;;;;;;;;;;;;;;;5032679;28;19925;-69
2023/07/02 04:13:54;;;;;;;;;;;;;;;;;;5032080;28;19925;-69
2023/07/02 04:16:21;;;;;;;;;;;;;;;;;;5033518;28;19931;-69
2023/07/02 04:18:47;;;;;;;;;;;;;;;;;;5032737;28;20435;-69
2023/07/02 04:21:13;;;;;;;;;;;;;;;;;;5032878;28;20077;-69
2023/07/02 04:23:40;;;;;;;;;;;;;;;;;;5032738;28;19925;-71
2023/07/02 04:26:06;;;;;;;;;;;;;;;;;;5032853;28;20451;-71
2023/07/02 04:28:34;;;;;;;;;;;;;;;;;;5032454;28;20414;-71
2023/07/02 04:31:01;;;;;;;;;;;;;;;;;;5032359;28;20015;-71
2023/07/02 04:33:35;;;;;;;;;;;;;;;;;;5032469;28;19925;-71
2023/07/02 04:36:01;;;;;;;;;;;;;;;;;;5032771;28;19925;-70
2023/07/02 04:38:28;;;;;;;;;;;;;;;;;;5032273;28;20181;-71
2023/07/02 04:41:01;;;;;;;;;;;;;;;;;;5032395;28;20011;-71
2023/07/02 04:43:29;;;;;;;;;;;;;;;;;;5032334;28;20390;-71
2023/07/02 04:45:56;;;;;;;;;;;;;;;;;;5032781;28;20382;-71
2023/07/02 04:48:23;;;;;;;;;;;;;;;;;;5032894;28;19931;-71
2023/07/02 04:50:49;;;;;;;;;;;;;;;;;;5031844;28;20394;-71
2023/07/02 04:53:16;;;;;;;;;;;;;;;;;;5032616;28;19944;-71
2023/07/02 04:55:42;;;;;;;;;;;;;;;;;;5031968;28;19964;-71
2023/07/02 04:58:08;;;;;;;;;;;;;;;;;;5032393;28;19929;-72
2023/07/02 05:00:35;;;;;;;;;;;;;;;;;;5031968;28;19983;-71
2023/07/02 05:03:03;;;;;;;;;;;;;;;;;;5032832;28;19971;-71
2023/07/02 05:05:29;;;;;;;;;;;;;;;;;;5032084;28;19925;-71
2023/07/02 05:07:55;;;;;;;;;;;;;;;;;;5032332;28;19925;-71
2023/07/02 05:10:22;;;;;;;;;;;;;;;;;;5031237;28;20019;-71
2023/07/02 05:12:48;;;;;;;;;;;;;;;;;;5032312;28;20383;-71
2023/07/02 05:15:15;;;;;;;;;;;;;;;;;;5031631;28;19925;-71
2023/07/02 05:17:41;;;;;;;;;;;;;;;;;;5032015;28;19936;-71
2023/07/02 05:20:10;;;;;;;;;;;;;;;;;;5031724;28;20024;-71
2023/07/02 05:22:36;;;;;;;;;;;;;;;;;;5032106;28;20306;-71
2023/07/02 05:25:03;;;;;;;;;;;;;;;;;;5030796;28;19932;-71
2023/07/02 05:27:29;;;;;;;;;;;;;;;;;;5031588;28;20475;-71
2023/07/02 05:29:56;;;;;;;;;;;;;;;;;;5031527;28;19925;-71
2023/07/02 05:32:22;;;;;;;;;;;;;;;;;;5030630;28;20011;-71
2023/07/02 05:34:48;;;;;;;;;;;;;;;;;;5031865;28;19931;-71
2023/07/02 05:37:16;;;;;;;;;;;;;;;;;;5031140;28;20413;-71
2023/07/02 05:39:43;;;;;;;;;;;;;;;;;;5030783;28;19931;-71
2023/07/02 05:42:09;;;;;;;;;;;;;;;;;;5031262;28;19925;-71
2023/07/02 05:44:35;;;;;;;;;;;;;;;;;;5031790;28;20454;-71
2023/07/02 05:47:02;;;;;;;;;;;;;;;;;;5031062;28;20293;-71
2023/07/02 05:49:28;;;;;;;;;;;;;;;;;;5031179;28;20295;-71
2023/07/02 05:51:55;;;;;;;;;;;;;;;;;;5031688;28;20012;-69
2023/07/02 05:54:22;;;;;;;;;;;;;;;;;;5030821;28;19925;-69
2023/07/02 05:56:49;;;;;;;;;;;;;;;;;;5031450;28;19932;-69
2023/07/02 05:59:17;;;;;;;;;;;;;;;;;;5030873;28;20011;-69
2023/07/02 06:01:44;;;;;;;;;;;;;;;;;;5031396;28;19975;-69
2023/07/02 06:04:10;;;;;;;;;;;;;;;;;;5031116;28;20401;-69
2023/07/02 06:06:36;;;;;;;;;;;;;;;;;;5031218;28;19925;-69
2023/07/02 06:09:03;;;;;;;;;;;;;;;;;;5030854;28;20015;-69
2023/07/02 06:11:31;;;;;;;;;;;;;;;;;;5030833;28;19925;-69
2023/07/02 06:13:58;;;;;;;;;;;;;;;;;;5030959;28;19929;-69
2023/07/02 06:16:24;;;;;;;;;;;;;;;;;;5030895;28;19925;-69
2023/07/02 06:18:51;;;;;;;;;;;;;;;;;;5030553;28;19925;-69
2023/07/02 06:21:17;;;;;;;;;;;;;;;;;;5030311;28;20012;-70
2023/07/02 06:23:44;;;;;;;;;;;;;;;;;;5030839;28;20023;-69
2023/07/02 06:26:10;;;;;;;;;;;;;;;;;;5030925;28;19979;-69
2023/07/02 06:28:39;;;;;;;;;;;;;;;;;;5030654;28;19935;-69
2023/07/02 06:31:05;;;;;;;;;;;;;;;;;;5030009;28;19925;-69
2023/07/02 06:33:31;;;;;;;;;;;;;;;;;;5030704;28;20020;-68
2023/07/02 06:35:58;;;;;;;;;;;;;;;;;;5029579;28;20020;-69
2023/07/02 06:38:24;;;;;;;;;;;;;;;;;;5030768;28;19925;-69
2023/07/02 06:40:51;;;;;;;;;;;;;;;;;;5030119;28;20381;-69
2023/07/02 06:43:17;;;;;;;;;;;;;;;;;;5030842;28;19926;-69
2023/07/02 06:45:45;;;;;;;;;;;;;;;;;;5030333;28;20394;-69
2023/07/02 06:48:11;;;;;;;;;;;;;;;;;;5030720;28;19931;-69
2023/07/02 06:50:38;;;;;;;;;;;;;;;;;;5029445;28;20028;-69
2023/07/02 06:53:04;;;;;;;;;;;;;;;;;;5030540;28;19925;-69
2023/07/02 06:55:31;;;;;;;;;;;;;;;;;;5030439;28;20414;-69
2023/07/02 06:57:57;;;;;;;;;;;;;;;;;;5030509;28;20302;-69
2023/07/02 07:00:23;;;;;;;;;;;;;;;;;;5030544;28;20012;-69
2023/07/02 07:02:51;;;;;;;;;;;;;;;;;;5030363;28;19929;-69
2023/07/02 07:05:17;;;;;;;;;;;;;;;;;;5030661;28;19951;-71
2023/07/02 07:07:44;;;;;;;;;;;;;;;;;;5030080;28;20012;-69
2023/07/02 07:10:10;;;;;;;;;;;;;;;;;;5030877;28;19961;-70
2023/07/02 07:12:37;;;;;;;;;;;;;;;;;;5031656;28;19983;-70
2023/07/02 07:15:04;;;;;;;;;;;;;;;;;;5030817;28;19925;-70
2023/07/02 07:17:30;;;;;;;;;;;;;;;;;;5030041;28;19925;-71
2023/07/02 07:19:58;;;;;;;;;;;;;;;;;;5030186;28;20361;-71
2023/07/02 07:22:24;;;;;;;;;;;;;;;;;;5030219;28;19925;-70
2023/07/02 07:24:51;;;;;;;;;;;;;;;;;;5030539;28;19925;-70
2023/07/02 07:27:17;;;;;;;;;;;;;;;;;;5029740;28;20012;-69
2023/07/02 07:29:44;;;;;;;;;;;;;;;;;;5029892;28;20288;-69
2023/07/02 07:32:10;;;;;;;;;;;;;;;;;;5029595;28;19931;-69
2023/07/02 07:34:36;;;;;;;;;;;;;;;;;;5030542;28;20019;-69
2023/07/02 07:37:04;;;;;;;;;;;;;;;;;;5030382;28;19925;-69
2023/07/02 07:39:31;;;;;;;;;;;;;;;;;;5029194;28;19947;-69
2023/07/02 07:41:57;;;;;;;;;;;;;;;;;;5030193;28;19925;-69
2023/07/02 07:44:28;;;;;;;;;;;;;;;;;;5029661;28;20353;-69
2023/07/02 07:46:55;;;;;;;;;;;;;;;;;;5030166;28;19982;-69
2023/07/02 07:49:21;;;;;;;;;;;;;;;;;;5032148;28;20029;-69
2023/07/02 07:51:47;;;;;;;;;;;;;;;;;;5033398;28;19925;-69
2023/07/02 07:54:15;;;;;;;;;;;;;;;;;;5033323;28;20008;-69
2023/07/02 07:56:42;;;;;;;;;;;;;;;;;;5033287;28;19931;-69
2023/07/02 07:59:08;;;;;;;;;;;;;;;;;;5032955;28;19969;-69
2023/07/02 08:01:35;;;;;;;;;;;;;;;;;;5033279;28;20012;-69
2023/07/02 08:04:01;;;;;;;;;;;;;;;;;;5033146;28;20355;-69
2023/07/02 08:06:28;;;;;;;;;;;;;;;;;;5033282;28;19925;-68
2023/07/02 08:08:54;;;;;;;;;;;;;;;;;;5033211;28;19925;-69
2023/07/02 08:11:22;;;;;;;;;;;;;;;;;;5032719;28;19925;-69
2023/07/02 08:13:48;;;;;;;;;;;;;;;;;;5033215;28;20125;-69
2023/07/02 08:16:14;;;;;;;;;;;;;;;;;;5033037;28;20383;-69
2023/07/02 08:18:41;;;;;;;;;;;;;;;;;;5033378;28;19925;-70
2023/07/02 08:21:07;;;;;;;;;;;;;;;;;;5032804;28;20004;-69
2023/07/02 08:23:34;;;;;;;;;;;;;;;;;;5033677;28;19925;-69
2023/07/02 08:26:01;;;;;;;;;;;;;;;;;;5032668;28;19935;-70
2023/07/02 08:28:29;;;;;;;;;;;;;;;;;;5032766;28;19925;-69
2023/07/02 08:30:55;;;;;;;;;;;;;;;;;;5032329;28;19926;-70
2023/07/02 08:33:22;;;;;;;;;;;;;;;;;;5033147;28;19925;-69
2023/07/02 08:35:48;;;;;;;;;;;;;;;;;;5032204;28;19925;-70
2023/07/02 08:38:15;;;;;;;;;;;;;;;;;;5032922;28;19925;-70
2023/07/02 08:40:41;;;;;;;;;;;;;;;;;;5031573;28;19979;-69
2023/07/02 08:43:08;;;;;;;;;;;;;;;;;;5032658;28;20280;-69
2023/07/02 08:45:36;;;;;;;;;;;;;;;;;;5033040;28;19979;-70
2023/07/02 08:48:03;;;;;;;;;;;;;;;;;;5032205;28;19932;-70
2023/07/02 08:50:29;;;;;;;;;;;;;;;;;;5032240;28;20012;-70
2023/07/02 08:52:56;;;;;;;;;;;;;;;;;;5031880;28;19932;-70
2023/07/02 08:55:22;;;;;;;;;;;;;;;;;;5032385;28;20023;-70
2023/07/02 08:57:51;;;;;;;;;;;;;;;;;;5028798;28;19925;-65
2023/07/02 09:00:18;;;;;;;;;;;;;;;;;;5030652;28;19925;-66
2023/07/02 09:02:46;;;;;;;;;;;;;;;;;;5030064;28;19932;-66
2023/07/02 09:05:13;;;;;;;;;;;;;;;;;;5028808;28;19975;-66
2023/07/02 09:07:46;;;;;;;;;;;;;;;;;;5031017;28;19929;-66
2023/07/02 09:10:12;;;;;;;;;;;;;;;;;;5030423;28;19932;-65
2023/07/02 09:12:39;;;;;;;;;;;;;;;;;;5031569;28;19925;-66
2023/07/02 09:15:06;;;;;;;;;;;;;;;;;;5030850;28;19932;-66
2023/07/02 09:17:33;;;;;;;;;;;;;;;;;;5028294;28;19929;-66
2023/07/02 09:20:02;;;;;;;;;;;;;;;;;;5029964;28;19935;-66
2023/07/02 09:22:29;;;;;;;;;;;;;;;;;;5030025;28;19929;-69
2023/07/02 09:24:57;;;;;;;;;;;;;;;;;;5030809;28;19926;-69
2023/07/02 09:27:33;;;;;;;;;;;;;;;;;;5031402;28;20015;-69
2023/07/02 09:30:06;;;;;;;;;;;;;;;;;;5030414;28;19929;-69
2023/07/02 09:32:33;;;;;;;;;;;;;;;;;;5028790;28;19925;-69
2023/07/02 09:35:01;;;;;;;;;;;;;;;;;;5032285;28;19925;-70
2023/07/02 09:37:28;;;;;;;;;;;;;;;;;;5048732;28;19978;-69
2023/07/02 09:39:56;;;;;;;;;;;;;;;;;;5029241;28;19925;-68
2023/07/02 09:42:22;;;;;;;;;;;;;;;;;;5030215;28;19925;-68
2023/07/02 09:44:49;;;;;;;;;;;;;;;;;;5030782;28;20016;-67
2023/07/02 09:47:18;;;;;;;;;;;;;;;;;;5028176;28;19925;-67
2023/07/02 09:49:48;;;;;;;;;;;;;;;;;;5028316;28;19947;-68
2023/07/02 09:52:16;;;;;;;;;;;;;;;;;;5030830;28;19932;-68
2023/07/02 09:54:42;;;;;;;;;;;;;;;;;;5030572;28;19925;-67
2023/07/02 09:57:09;;;;;;;;;;;;;;;;;;5030452;28;19929;-68
2023/07/02 09:59:36;;;;;;;;;;;;;;;;;;5030763;28;19951;-67
2023/07/02 10:02:02;;;;;;;;;;;;;;;;;;5031290;28;19925;-67
2023/07/02 10:04:29;;;;;;;;;;;;;;;;;;5030703;28;20023;-67
2023/07/02 10:06:56;;;;;;;;;;;;;;;;;;5031335;28;20297;-68
2023/07/02 10:09:35;;;;;;;;;;;;;;;;;;5030907;28;19925;-68
2023/07/02 10:12:02;;;;;;;;;;;;;;;;;;5030632;28;19931;-67
2023/07/02 10:14:40;;;;;;;;;;;;;;;;;;5030494;28;19932;-68
2023/07/02 10:17:07;;;;;;;;;;;;;;;;;;5031203;28;19925;-68
2023/07/02 10:19:33;;;;;;;;;;;;;;;;;;5030041;28;19935;-68
2023/07/02 10:22:03;;;;;;;;;;;;;;;;;;5031086;28;20425;-68
2023/07/02 10:24:31;;;;;;;;;;;;;;;;;;5030550;28;20016;-68
2023/07/02 10:26:58;;;;;;;;;;;;;;;;;;5031477;28;19937;-68
2023/07/02 10:29:24;;;;;;;;;;;;;;;;;;5030308;28;19957;-68
2023/07/02 10:31:51;;;;;;;;;;;;;;;;;;5031020;28;19975;-68
2023/07/02 10:34:28;;;;;;;;;;;;;;;;;;5031341;28;19931;-67
2023/07/02 10:36:55;;;;;;;;;;;;;;;;;;5030441;28;19925;-68
2023/07/02 10:39:21;;;;;;;;;;;;;;;;;;5030732;28;19929;-68
2023/07/02 10:41:50;;;;;;;;;;;;;;;;;;5029854;28;19947;-68
2023/07/02 10:44:16;;;;;;;;;;;;;;;;;;5030913;28;19929;-67
2023/07/02 10:46:46;;;;;;;;;;;;;;;;;;5030442;28;19932;-67
2023/07/02 10:49:13;;;;;;;;;;;;;;;;;;5030755;28;20438;-68
2023/07/02 10:51:39;;;;;;;;;;;;;;;;;;5029959;28;20020;-68
2023/07/02 10:54:05;;;;;;;;;;;;;;;;;;5030550;28;20402;-68
2023/07/02 10:56:32;;;;;;;;;;;;;;;;;;5029772;28;19929;-68
2023/07/02 10:59:00;;;;;;;;;;;;;;;;;;5030666;28;19925;-68
2023/07/02 11:01:27;;;;;;;;;;;;;;;;;;5029810;28;20394;-68
2023/07/02 11:03:57;;;;;;;;;;;;;;;;;;5030749;28;19965;-67
2023/07/02 11:06:23;;;;;;;;;;;;;;;;;;5030230;28;19931;-68
2023/07/02 11:08:50;;;;;;;;;;;;;;;;;;5030178;28;20007;-68
2023/07/02 11:11:16;;;;;;;;;;;;;;;;;;5030252;28;20302;-68
2023/07/02 11:13:46;;;;;;;;;;;;;;;;;;5030202;28;19988;-67
2023/07/02 11:16:26;;;;;;;;;;;;;;;;;;5030544;28;19926;-68
2023/07/02 11:18:53;;;;;;;;;;;;;;;;;;5030046;28;20425;-68
2023/07/02 11:21:20;;;;;;;;;;;;;;;;;;5029617;28;19925;-68
2023/07/02 11:23:46;;;;;;;;;;;;;;;;;;5033264;28;19931;-69
2023/07/02 11:26:12;;;;;;;;;;;;;;;;;;5034432;28;19925;-68
2023/07/02 11:28:48;;;;;;;;;;;;;;;;;;5033628;28;20024;-68
2023/07/02 11:31:14;;;;;;;;;;;;;;;;;;5033823;28;19925;-68
2023/07/02 11:33:44;;;;;;;;;;;;;;;;;;5033501;28;20020;-68
2023/07/02 11:36:20;;;;;;;;;;;;;;;;;;5034221;28;19933;-68
2023/07/02 11:38:47;;;;;;;;;;;;;;;;;;5033738;28;19929;-68
2023/07/02 11:41:13;;;;;;;;;;;;;;;;;;5033843;28;20024;-68
2023/07/02 11:43:41;;;;;;;;;;;;;;;;;;5032787;28;20282;-68
2023/07/02 11:46:08;;;;;;;;;;;;;;;;;;5034282;28;20393;-67
2023/07/02 11:48:34;;;;;;;;;;;;;;;;;;5033019;28;20013;-68
2023/07/02 11:51:02;;;;;;;;;;;;;;;;;;5033333;28;20387;-69
2023/07/02 11:53:28;;;;;;;;;;;;;;;;;;5033593;28;19931;-68
2023/07/02 11:55:55;;;;;;;;;;;;;;;;;;5033574;28;20352;-68
2023/07/02 11:58:21;;;;;;;;;;;;;;;;;;5033408;28;20019;-68
2023/07/02 12:00:48;;;;;;;;;;;;;;;;;;5033031;28;19925;-68
2023/07/02 12:03:14;;;;;;;;;;;;;;;;;;5033803;28;20294;-68
2023/07/02 12:05:40;;;;;;;;;;;;;;;;;;5033005;28;20418;-68
2023/07/02 12:08:08;;;;;;;;;;;;;;;;;;5033452;28;19925;-68
2023/07/02 12:10:35;;;;;;;;;;;;;;;;;;5031631;28;19925;-68
2023/07/02 12:13:01;;;;;;;;;;;;;;;;;;5032869;28;19929;-68
2023/07/02 12:15:28;;;;;;;;;;;;;;;;;;5032522;28;20391;-68
2023/07/02 12:17:55;;;;;;;;;;;;;;;;;;5033186;28;20020;-68
2023/07/02 12:20:21;;;;;;;;;;;;;;;;;;5032532;28;20646;-68
2023/07/02 12:22:48;;;;;;;;;;;;;;;;;;5033163;28;20012;-67
2023/07/02 12:25:16;;;;;;;;;;;;;;;;;;5033024;28;20337;-68
2023/07/02 12:27:42;;;;;;;;;;;;;;;;;;5032560;28;20297;-68
2023/07/02 12:30:09;;;;;;;;;;;;;;;;;;5032405;28;19932;-68
2023/07/02 12:32:35;;;;;;;;;;;;;;;;;;5032407;28;20032;-67
2023/07/02 12:35:02;;;;;;;;;;;;;;;;;;5032663;28;20378;-68
2023/07/02 12:37:28;;;;;;;;;;;;;;;;;;5032714;28;19945;-68
2023/07/02 12:39:55;;;;;;;;;;;;;;;;;;5032240;28;20430;-67
2023/07/02 12:42:22;;;;;;;;;;;;;;;;;;5032331;28;20020;-68
2023/07/02 12:44:49;;;;;;;;;;;;;;;;;;5032656;28;20336;-68
2023/07/02 12:47:15;;;;;;;;;;;;;;;;;;5032875;28;19932;-67
2023/07/02 12:49:42;;;;;;;;;;;;;;;;;;5031998;28;19929;-67
2023/07/02 12:52:08;;;;;;;;;;;;;;;;;;5032499;28;20013;-67
2023/07/02 12:54:34;;;;;;;;;;;;;;;;;;5031944;28;19925;-67
2023/07/02 12:57:01;;;;;;;;;;;;;;;;;;5032119;28;19932;-69
2023/07/02 12:59:28;;;;;;;;;;;;;;;;;;5031406;28;20386;-68
2023/07/02 13:01:55;;;;;;;;;;;;;;;;;;5032254;28;20015;-68
2023/07/02 13:04:21;;;;;;;;;;;;;;;;;;5032067;28;19936;-68
2023/07/02 13:06:48;;;;;;;;;;;;;;;;;;5032022;28;19925;-68
2023/07/02 13:09:14;;;;;;;;;;;;;;;;;;5031793;28;20391;-68
2023/07/02 13:11:40;;;;;;;;;;;;;;;;;;5031455;28;19932;-68
2023/07/02 13:14:07;;;;;;;;;;;;;;;;;;5032046;28;20383;-68
2023/07/02 13:16:34;;;;;;;;;;;;;;;;;;5031749;28;19925;-68
2023/07/02 13:19:01;;;;;;;;;;;;;;;;;;5032098;28;20385;-68
2023/07/02 13:21:28;;;;;;;;;;;;;;;;;;5030891;28;19929;-68
2023/07/02 13:23:54;;;;;;;;;;;;;;;;;;5032293;28;19932;-68
2023/07/02 13:26:21;;;;;;;;;;;;;;;;;;5030982;28;19948;-68
2023/07/02 13:28:48;;;;;;;;;;;;;;;;;;5032087;28;19925;-68
2023/07/02 13:31:14;;;;;;;;;;;;;;;;;;5031236;28;19964;-69
2023/07/02 13:33:42;;;;;;;;;;;;;;;;;;5031926;28;20391;-68
2023/07/02 13:36:09;;;;;;;;;;;;;;;;;;5031421;28;19925;-69
2023/07/02 13:38:35;;;;;;;;;;;;;;;;;;5031068;28;20306;-68
2023/07/02 13:41:02;;;;;;;;;;;;;;;;;;5031091;28;20434;-68
2023/07/02 13:43:28;;;;;;;;;;;;;;;;;;5031197;28;19925;-69
2023/07/02 13:45:54;;;;;;;;;;;;;;;;;;5030603;28;19925;-69
2023/07/02 13:48:21;;;;;;;;;;;;;;;;;;5030946;28;20007;-69
2023/07/02 13:50:49;;;;;;;;;;;;;;;;;;5031266;28;20375;-69
2023/07/02 13:53:15;;;;;;;;;;;;;;;;;;5031070;28;20015;-69
2023/07/02 13:55:41;;;;;;;;;;;;;;;;;;5031732;28;19992;-68
2023/07/02 13:58:08;;;;;;;;;;;;;;;;;;5031111;28;19947;-68
2023/07/02 14:00:36;;;;;;;;;;;;;;;;;;5030787;28;19925;-68
2023/07/02 14:03:02;;;;;;;;;;;;;;;;;;5030995;28;19925;-68
2023/07/02 14:05:28;;;;;;;;;;;;;;;;;;5031229;28;20280;-68
2023/07/02 14:07:55;;;;;;;;;;;;;;;;;;5030903;28;20012;-68
2023/07/02 14:10:21;;;;;;;;;;;;;;;;;;5029958;28;20016;-68
2023/07/02 14:12:48;;;;;;;;;;;;;;;;;;5031166;28;20391;-68
2023/07/02 14:15:14;;;;;;;;;;;;;;;;;;5030777;28;19925;-68
2023/07/02 14:17:43;;;;;;;;;;;;;;;;;;5030862;28;19925;-68
2023/07/02 14:20:09;;;;;;;;;;;;;;;;;;5030059;28;19925;-68
2023/07/02 14:22:36;;;;;;;;;;;;;;;;;;5030609;28;20019;-68
2023/07/02 14:25:02;;;;;;;;;;;;;;;;;;5030542;28;19925;-68
2023/07/02 14:27:29;;;;;;;;;;;;;;;;;;5031165;28;19931;-69
2023/07/02 14:29:55;;;;;;;;;;;;;;;;;;5030124;28;19972;-67
2023/07/02 14:32:22;;;;;;;;;;;;;;;;;;5030830;28;19932;-68
2023/07/02 14:34:50;;;;;;;;;;;;;;;;;;5030400;28;19925;-69
2023/07/02 14:37:16;;;;;;;;;;;;;;;;;;5030425;28;19925;-68
2023/07/02 14:39:43;;;;;;;;;;;;;;;;;;5030464;28;20274;-68
2023/07/02 14:42:09;;;;;;;;;;;;;;;;;;5030880;28;19932;-68
2023/07/02 14:44:36;;;;;;;;;;;;;;;;;;5030844;28;19979;-68
2023/07/02 14:47:02;;;;;;;;;;;;;;;;;;5030332;28;20434;-68
2023/07/02 14:49:28;;;;;;;;;;;;;;;;;;5028715;28;20276;-68
2023/07/02 14:51:56;;;;;;;;;;;;;;;;;;5029604;28;19925;-68
2023/07/02 14:54:23;;;;;;;;;;;;;;;;;;5030840;28;19925;-68
2023/07/02 14:56:49;;;;;;;;;;;;;;;;;;5030104;28;20378;-68
2023/07/02 14:59:16;;;;;;;;;;;;;;;;;;5034899;28;19930;-68
2023/07/02 15:01:42;;;;;;;;;;;;;;;;;;5034190;28;19929;-68
2023/07/02 15:04:08;;;;;;;;;;;;;;;;;;5034559;28;19933;-68
2023/07/02 15:06:36;;;;;;;;;;;;;;;;;;5033929;28;19976;-68
2023/07/02 15:09:03;;;;;;;;;;;;;;;;;;5034333;28;19964;-68
2023/07/02 15:11:30;;;;;;;;;;;;;;;;;;5034148;28;19971;-68
2023/07/02 15:13:57;;;;;;;;;;;;;;;;;;5034282;28;20012;-68
2023/07/02 15:16:24;;;;;;;;;;;;;;;;;;5034279;28;19983;-68
2023/07/02 15:18:50;;;;;;;;;;;;;;;;;;5033536;28;19931;-69
2023/07/02 15:21:18;;;;;;;;;;;;;;;;;;5034019;28;20074;-68
2023/07/02 15:23:44;;;;;;;;;;;;;;;;;;5033700;28;19929;-68
2023/07/02 15:26:12;;;;;;;;;;;;;;;;;;5034204;28;20276;-68
2023/07/02 15:28:39;;;;;;;;;;;;;;;;;;5033661;28;19979;-68
2023/07/02 15:31:06;;;;;;;;;;;;;;;;;;5033799;28;19936;-68
2023/07/02 15:33:33;;;;;;;;;;;;;;;;;;5033315;28;20359;-68
2023/07/02 15:35:59;;;;;;;;;;;;;;;;;;5034163;28;20264;-68
2023/07/02 15:38:27;;;;;;;;;;;;;;;;;;5033271;28;20549;-68
2023/07/02 15:41:04;;;;;;;;;;;;;;;;;;5033475;28;19925;-68
2023/07/02 15:43:32;;;;;;;;;;;;;;;;;;5033345;28;20497;-68
2023/07/02 15:45:58;;;;;;;;;;;;;;;;;;5033791;28;19925;-68
2023/07/02 15:48:25;;;;;;;;;;;;;;;;;;5032822;28;19964;-70
2023/07/02 15:50:51;;;;;;;;;;;;;;;;;;5033622;28;20019;-69
2023/07/02 15:53:20;;;;;;;;;;;;;;;;;;5033933;28;20090;-69
2023/07/02 15:55:47;;;;;;;;;;;;;;;;;;5033436;28;19964;-69
2023/07/02 15:58:14;;;;;;;;;;;;;;;;;;5033738;28;19925;-69
2023/07/02 16:00:41;;;;;;;;;;;;;;;;;;5032642;28;19925;-69
2023/07/02 16:03:08;;;;;;;;;;;;;;;;;;5033707;28;20302;-69
2023/07/02 16:05:37;;;;;;;;;;;;;;;;;;5033615;28;19999;-69
2023/07/02 16:08:03;;;;;;;;;;;;;;;;;;5033379;28;19931;-69
2023/07/02 16:10:30;;;;;;;;;;;;;;;;;;5031462;28;20318;-69
2023/07/02 16:12:56;;;;;;;;;;;;;;;;;;5033272;28;19932;-70
2023/07/02 16:15:23;;;;;;;;;;;;;;;;;;5032774;28;20390;-69
2023/07/02 16:17:52;;;;;;;;;;;;;;;;;;5032918;28;20003;-68
2023/07/02 16:20:18;;;;;;;;;;;;;;;;;;5032478;28;19968;-69
2023/07/02 16:22:45;;;;;;;;;;;;;;;;;;5033209;28;20011;-69
2023/07/02 16:25:11;;;;;;;;;;;;;;;;;;5032694;28;19969;-69
2023/07/02 16:27:38;;;;;;;;;;;;;;;;;;5032633;28;20286;-69
2023/07/02 16:30:05;;;;;;;;;;;;;;;;;;5032758;28;19925;-69
2023/07/02 16:32:31;;;;;;;;;;;;;;;;;;5032385;28;19929;-69
2023/07/02 16:34:59;;;;;;;;;;;;;;;;;;5032847;28;20298;-68
2023/07/02 16:37:25;;;;;;;;;;;;;;;;;;5032370;28;19932;-69
2023/07/02 16:39:52;;;;;;;;;;;;;;;;;;5031974;28;19925;-69
2023/07/02 16:42:18;;;;;;;;;;;;;;;;;;5032141;28;19925;-68
2023/07/02 16:44:44;;;;;;;;;;;;;;;;;;5032847;28;20313;-68